sensor_id;sensor_type;location;lat;lon;timestamp;P1;durP1;ratioP1;P2;durP2;ratioP2
74100;SDS011;62462;52.530;21.682;2022-09-27T00:01:59;33.00;;;20.85;;
74100;SDS011;62462;52.530;21.682;2022-09-27T00:04:25;35.67;;;23.25;;
74100;SDS011;62462;52.530;21.682;2022-09-27T00:06:51;39.60;;;23.98;;
74100;SDS011;62462;52.530;21.682;2022-09-27T00:09:17;35.60;;;22.75;;
74100;SDS011;62462;52.530;21.682;2022-09-27T00:11:43;33.95;;;22.60;;
74100;SDS011;62462;52.530;21.682;2022-09-27T00:14:10;32.28;;;21.92;;
74100;SDS011;62462;52.530;21.682;2022-09-27T00:16:38;34.15;;;22.33;;
74100;SDS011;62462;52.530;21.682;2022-09-27T00:19:06;37.35;;;22.15;;
74100;SDS011;62462;52.530;21.682;2022-09-27T00:21:35;34.40;;;22.73;;
74100;SDS011;62462;52.530;21.682;2022-09-27T00:24:01;29.67;;;21.95;;
74100;SDS011;62462;52.530;21.682;2022-09-27T00:26:26;32.10;;;22.10;;
74100;SDS011;62462;52.530;21.682;2022-09-27T00:28:53;34.22;;;22.70;;
74100;SDS011;62462;52.530;21.682;2022-09-27T00:31:21;36.17;;;23.08;;
74100;SDS011;62462;52.530;21.682;2022-09-27T00:33:53;37.35;;;23.63;;
74100;SDS011;62462;52.530;21.682;2022-09-27T00:36:20;35.95;;;23.45;;
74100;SDS011;62462;52.530;21.682;2022-09-27T00:38:47;30.48;;;21.88;;
74100;SDS011;62462;52.530;21.682;2022-09-27T00:41:17;34.10;;;20.70;;
74100;SDS011;62462;52.530;21.682;2022-09-27T00:43:46;30.48;;;21.05;;
74100;SDS011;62462;52.530;21.682;2022-09-27T00:46:17;34.08;;;21.75;;
74100;SDS011;62462;52.530;21.682;2022-09-27T00:49:10;29.02;;;21.08;;
74100;SDS011;62462;52.530;21.682;2022-09-27T00:51:47;30.25;;;20.27;;
74100;SDS011;62462;52.530;21.682;2022-09-27T00:54:17;34.75;;;20.98;;
74100;SDS011;62462;52.530;21.682;2022-09-27T00:56:44;29.63;;;21.05;;
74100;SDS011;62462;52.530;21.682;2022-09-27T00:59:16;29.40;;;20.10;;
74100;SDS011;62462;52.530;21.682;2022-09-27T01:01:48;25.58;;;18.48;;
74100;SDS011;62462;52.530;21.682;2022-09-27T01:04:14;26.33;;;18.77;;
74100;SDS011;62462;52.530;21.682;2022-09-27T01:06:46;25.20;;;18.23;;
74100;SDS011;62462;52.530;21.682;2022-09-27T01:09:12;27.67;;;18.75;;
74100;SDS011;62462;52.530;21.682;2022-09-27T01:11:47;25.63;;;18.10;;
74100;SDS011;62462;52.530;21.682;2022-09-27T01:33:36;28.20;;;19.73;;
74100;SDS011;62462;52.530;21.682;2022-09-27T01:36:13;28.20;;;19.65;;
74100;SDS011;62462;52.530;21.682;2022-09-27T01:38:46;28.05;;;18.63;;
74100;SDS011;62462;52.530;21.682;2022-09-27T01:42:03;27.25;;;18.52;;
74100;SDS011;62462;52.530;21.682;2022-09-27T01:46:52;34.55;;;22.08;;
74100;SDS011;62462;52.530;21.682;2022-09-27T01:49:39;31.70;;;21.33;;
74100;SDS011;62462;52.530;21.682;2022-09-27T01:52:12;32.70;;;21.15;;
74100;SDS011;62462;52.530;21.682;2022-09-27T01:54:43;32.88;;;22.00;;
74100;SDS011;62462;52.530;21.682;2022-09-27T01:57:12;33.92;;;21.50;;
74100;SDS011;62462;52.530;21.682;2022-09-27T01:59:45;30.67;;;20.70;;
74100;SDS011;62462;52.530;21.682;2022-09-27T02:02:19;31.15;;;22.02;;
74100;SDS011;62462;52.530;21.682;2022-09-27T02:04:49;35.00;;;22.05;;
74100;SDS011;62462;52.530;21.682;2022-09-27T02:07:22;30.95;;;21.05;;
74100;SDS011;62462;52.530;21.682;2022-09-27T02:09:52;32.95;;;21.30;;
74100;SDS011;62462;52.530;21.682;2022-09-27T02:12:24;33.15;;;22.55;;
74100;SDS011;62462;52.530;21.682;2022-09-27T02:14:56;35.47;;;22.60;;
74100;SDS011;62462;52.530;21.682;2022-09-27T02:17:50;34.67;;;22.67;;
74100;SDS011;62462;52.530;21.682;2022-09-27T02:22:54;36.70;;;23.55;;
74100;SDS011;62462;52.530;21.682;2022-09-27T02:25:31;36.92;;;24.20;;
74100;SDS011;62462;52.530;21.682;2022-09-27T02:31:13;35.00;;;22.90;;
74100;SDS011;62462;52.530;21.682;2022-09-27T02:36:14;34.03;;;22.77;;
74100;SDS011;62462;52.530;21.682;2022-09-27T02:38:40;36.03;;;22.92;;
74100;SDS011;62462;52.530;21.682;2022-09-27T02:41:12;38.75;;;23.50;;
74100;SDS011;62462;52.530;21.682;2022-09-27T02:43:42;35.38;;;21.90;;
74100;SDS011;62462;52.530;21.682;2022-09-27T03:02:33;37.28;;;24.73;;
74100;SDS011;62462;52.530;21.682;2022-09-27T03:05:03;38.33;;;24.60;;
74100;SDS011;62462;52.530;21.682;2022-09-27T03:07:32;39.17;;;25.95;;
74100;SDS011;62462;52.530;21.682;2022-09-27T03:09:59;35.85;;;24.08;;
74100;SDS011;62462;52.530;21.682;2022-09-27T03:12:25;35.75;;;24.63;;
74100;SDS011;62462;52.530;21.682;2022-09-27T03:14:57;37.15;;;23.92;;
74100;SDS011;62462;52.530;21.682;2022-09-27T03:17:24;36.08;;;23.55;;
74100;SDS011;62462;52.530;21.682;2022-09-27T03:19:50;33.90;;;23.65;;
74100;SDS011;62462;52.530;21.682;2022-09-27T03:22:16;33.78;;;23.08;;
74100;SDS011;62462;52.530;21.682;2022-09-27T03:24:42;33.58;;;22.60;;
74100;SDS011;62462;52.530;21.682;2022-09-27T03:27:09;33.28;;;22.98;;
74100;SDS011;62462;52.530;21.682;2022-09-27T03:29:36;35.60;;;23.55;;
74100;SDS011;62462;52.530;21.682;2022-09-27T03:32:02;38.55;;;23.55;;
74100;SDS011;62462;52.530;21.682;2022-09-27T03:34:28;33.83;;;23.17;;
74100;SDS011;62462;52.530;21.682;2022-09-27T03:36:54;36.63;;;23.13;;
74100;SDS011;62462;52.530;21.682;2022-09-27T03:39:20;33.05;;;22.52;;
74100;SDS011;62462;52.530;21.682;2022-09-27T03:41:46;32.80;;;22.52;;
74100;SDS011;62462;52.530;21.682;2022-09-27T03:44:12;36.03;;;23.27;;
74100;SDS011;62462;52.530;21.682;2022-09-27T03:46:37;34.35;;;22.60;;
74100;SDS011;62462;52.530;21.682;2022-09-27T03:49:03;29.85;;;20.42;;
74100;SDS011;62462;52.530;21.682;2022-09-27T03:51:30;34.85;;;22.90;;
74100;SDS011;62462;52.530;21.682;2022-09-27T03:53:56;31.65;;;22.73;;
74100;SDS011;62462;52.530;21.682;2022-09-27T03:56:22;35.25;;;23.00;;
74100;SDS011;62462;52.530;21.682;2022-09-27T03:58:48;33.13;;;22.65;;
74100;SDS011;62462;52.530;21.682;2022-09-27T04:01:13;35.17;;;24.55;;
74100;SDS011;62462;52.530;21.682;2022-09-27T04:03:39;33.72;;;23.20;;
74100;SDS011;62462;52.530;21.682;2022-09-27T04:06:05;36.88;;;24.52;;
74100;SDS011;62462;52.530;21.682;2022-09-27T04:08:31;30.65;;;22.75;;
74100;SDS011;62462;52.530;21.682;2022-09-27T04:10:57;39.10;;;25.20;;
74100;SDS011;62462;52.530;21.682;2022-09-27T04:13:23;38.83;;;24.70;;
74100;SDS011;62462;52.530;21.682;2022-09-27T04:15:49;38.70;;;24.92;;
74100;SDS011;62462;52.530;21.682;2022-09-27T04:18:15;36.85;;;23.52;;
74100;SDS011;62462;52.530;21.682;2022-09-27T04:20:40;35.42;;;23.08;;
74100;SDS011;62462;52.530;21.682;2022-09-27T04:23:07;36.78;;;23.00;;
74100;SDS011;62462;52.530;21.682;2022-09-27T04:25:32;34.17;;;22.08;;
74100;SDS011;62462;52.530;21.682;2022-09-27T04:27:59;35.72;;;24.20;;
74100;SDS011;62462;52.530;21.682;2022-09-27T04:30:25;34.30;;;24.05;;
74100;SDS011;62462;52.530;21.682;2022-09-27T04:32:52;30.58;;;21.55;;
74100;SDS011;62462;52.530;21.682;2022-09-27T04:35:18;34.10;;;21.77;;
74100;SDS011;62462;52.530;21.682;2022-09-27T04:38:02;35.78;;;22.75;;
74100;SDS011;62462;52.530;21.682;2022-09-27T04:40:29;31.05;;;21.45;;
74100;SDS011;62462;52.530;21.682;2022-09-27T04:42:57;36.05;;;23.23;;
74100;SDS011;62462;52.530;21.682;2022-09-27T04:45:23;37.38;;;23.65;;
74100;SDS011;62462;52.530;21.682;2022-09-27T04:47:49;38.10;;;26.05;;
74100;SDS011;62462;52.530;21.682;2022-09-27T04:50:15;46.33;;;27.83;;
74100;SDS011;62462;52.530;21.682;2022-09-27T04:52:42;36.13;;;25.83;;
74100;SDS011;62462;52.530;21.682;2022-09-27T04:55:08;37.15;;;25.10;;
74100;SDS011;62462;52.530;21.682;2022-09-27T04:57:35;38.75;;;24.95;;
74100;SDS011;62462;52.530;21.682;2022-09-27T05:00:01;42.50;;;26.33;;
74100;SDS011;62462;52.530;21.682;2022-09-27T05:02:28;36.95;;;24.88;;
74100;SDS011;62462;52.530;21.682;2022-09-27T05:04:54;37.67;;;24.40;;
74100;SDS011;62462;52.530;21.682;2022-09-27T05:07:27;35.30;;;24.23;;
74100;SDS011;62462;52.530;21.682;2022-09-27T05:09:53;35.88;;;23.75;;
74100;SDS011;62462;52.530;21.682;2022-09-27T05:12:20;34.28;;;23.38;;
74100;SDS011;62462;52.530;21.682;2022-09-27T05:14:46;32.95;;;22.42;;
74100;SDS011;62462;52.530;21.682;2022-09-27T05:17:12;34.42;;;23.75;;
74100;SDS011;62462;52.530;21.682;2022-09-27T05:19:38;35.05;;;23.27;;
74100;SDS011;62462;52.530;21.682;2022-09-27T05:22:05;32.72;;;22.90;;
74100;SDS011;62462;52.530;21.682;2022-09-27T05:24:31;31.05;;;22.63;;
74100;SDS011;62462;52.530;21.682;2022-09-27T05:26:58;28.80;;;20.98;;
74100;SDS011;62462;52.530;21.682;2022-09-27T05:29:24;30.50;;;21.50;;
74100;SDS011;62462;52.530;21.682;2022-09-27T05:31:50;31.20;;;21.63;;
74100;SDS011;62462;52.530;21.682;2022-09-27T05:34:16;31.35;;;22.30;;
74100;SDS011;62462;52.530;21.682;2022-09-27T05:36:47;29.58;;;20.88;;
74100;SDS011;62462;52.530;21.682;2022-09-27T05:39:13;28.10;;;19.95;;
74100;SDS011;62462;52.530;21.682;2022-09-27T05:41:44;34.13;;;22.15;;
74100;SDS011;62462;52.530;21.682;2022-09-27T05:44:10;34.13;;;23.60;;
74100;SDS011;62462;52.530;21.682;2022-09-27T05:46:39;36.10;;;23.15;;
74100;SDS011;62462;52.530;21.682;2022-09-27T05:49:05;34.03;;;21.85;;
74100;SDS011;62462;52.530;21.682;2022-09-27T05:51:31;33.55;;;21.98;;
74100;SDS011;62462;52.530;21.682;2022-09-27T05:53:57;36.47;;;23.02;;
74100;SDS011;62462;52.530;21.682;2022-09-27T05:56:23;34.17;;;22.52;;
74100;SDS011;62462;52.530;21.682;2022-09-27T05:58:51;32.63;;;22.20;;
74100;SDS011;62462;52.530;21.682;2022-09-27T06:01:17;39.05;;;23.35;;
74100;SDS011;62462;52.530;21.682;2022-09-27T06:03:43;33.90;;;23.02;;
74100;SDS011;62462;52.530;21.682;2022-09-27T06:06:11;36.63;;;23.10;;
74100;SDS011;62462;52.530;21.682;2022-09-27T06:08:38;30.00;;;21.02;;
74100;SDS011;62462;52.530;21.682;2022-09-27T06:11:05;33.30;;;22.75;;
74100;SDS011;62462;52.530;21.682;2022-09-27T06:13:33;31.13;;;21.27;;
74100;SDS011;62462;52.530;21.682;2022-09-27T06:16:05;30.02;;;21.17;;
74100;SDS011;62462;52.530;21.682;2022-09-27T06:18:32;29.77;;;21.13;;
74100;SDS011;62462;52.530;21.682;2022-09-27T06:20:59;30.48;;;20.30;;
74100;SDS011;62462;52.530;21.682;2022-09-27T06:23:25;28.52;;;20.05;;
74100;SDS011;62462;52.530;21.682;2022-09-27T06:25:52;31.70;;;19.98;;
74100;SDS011;62462;52.530;21.682;2022-09-27T06:28:18;30.83;;;19.67;;
74100;SDS011;62462;52.530;21.682;2022-09-27T06:30:45;29.92;;;20.42;;
74100;SDS011;62462;52.530;21.682;2022-09-27T06:33:17;29.17;;;20.20;;
74100;SDS011;62462;52.530;21.682;2022-09-27T06:35:44;26.17;;;19.17;;
74100;SDS011;62462;52.530;21.682;2022-09-27T06:38:11;25.92;;;18.80;;
74100;SDS011;62462;52.530;21.682;2022-09-27T06:40:40;28.08;;;20.73;;
74100;SDS011;62462;52.530;21.682;2022-09-27T06:43:12;26.95;;;18.95;;
74100;SDS011;62462;52.530;21.682;2022-09-27T06:45:40;24.02;;;17.50;;
74100;SDS011;62462;52.530;21.682;2022-09-27T06:48:07;28.25;;;18.20;;
74100;SDS011;62462;52.530;21.682;2022-09-27T06:50:35;26.73;;;18.27;;
74100;SDS011;62462;52.530;21.682;2022-09-27T06:53:02;25.65;;;17.52;;
74100;SDS011;62462;52.530;21.682;2022-09-27T06:55:31;25.20;;;17.42;;
74100;SDS011;62462;52.530;21.682;2022-09-27T06:57:58;25.17;;;18.25;;
74100;SDS011;62462;52.530;21.682;2022-09-27T07:00:43;23.27;;;16.88;;
74100;SDS011;62462;52.530;21.682;2022-09-27T07:03:10;24.52;;;17.27;;
74100;SDS011;62462;52.530;21.682;2022-09-27T07:05:37;25.38;;;18.10;;
74100;SDS011;62462;52.530;21.682;2022-09-27T07:08:05;27.98;;;19.83;;
74100;SDS011;62462;52.530;21.682;2022-09-27T07:10:33;28.63;;;19.50;;
74100;SDS011;62462;52.530;21.682;2022-09-27T07:15:35;30.50;;;19.48;;
74100;SDS011;62462;52.530;21.682;2022-09-27T07:18:05;29.02;;;19.02;;
74100;SDS011;62462;52.530;21.682;2022-09-27T07:20:32;33.00;;;19.85;;
74100;SDS011;62462;52.530;21.682;2022-09-27T07:23:01;26.55;;;18.02;;
74100;SDS011;62462;52.530;21.682;2022-09-27T07:25:28;32.20;;;20.33;;
74100;SDS011;62462;52.530;21.682;2022-09-27T07:27:54;27.95;;;17.90;;
74100;SDS011;62462;52.530;21.682;2022-09-27T07:30:26;26.52;;;16.30;;
74100;SDS011;62462;52.530;21.682;2022-09-27T07:32:56;29.77;;;18.98;;
74100;SDS011;62462;52.530;21.682;2022-09-27T07:35:25;36.15;;;24.15;;
74100;SDS011;62462;52.530;21.682;2022-09-27T07:37:52;26.70;;;17.70;;
74100;SDS011;62462;52.530;21.682;2022-09-27T07:40:19;27.63;;;18.40;;
74100;SDS011;62462;52.530;21.682;2022-09-27T07:42:44;25.55;;;17.77;;
74100;SDS011;62462;52.530;21.682;2022-09-27T07:45:10;30.88;;;19.92;;
74100;SDS011;62462;52.530;21.682;2022-09-27T07:47:37;28.92;;;20.10;;
74100;SDS011;62462;52.530;21.682;2022-09-27T07:50:04;28.42;;;19.15;;
74100;SDS011;62462;52.530;21.682;2022-09-27T07:52:37;33.65;;;20.17;;
74100;SDS011;62462;52.530;21.682;2022-09-27T07:55:04;29.70;;;19.03;;
74100;SDS011;62462;52.530;21.682;2022-09-27T07:57:30;31.95;;;21.38;;
74100;SDS011;62462;52.530;21.682;2022-09-27T07:59:56;29.63;;;19.98;;
74100;SDS011;62462;52.530;21.682;2022-09-27T08:02:22;31.80;;;20.23;;
74100;SDS011;62462;52.530;21.682;2022-09-27T08:04:48;31.30;;;20.45;;
74100;SDS011;62462;52.530;21.682;2022-09-27T08:07:14;31.05;;;20.00;;
74100;SDS011;62462;52.530;21.682;2022-09-27T08:09:40;35.10;;;22.77;;
74100;SDS011;62462;52.530;21.682;2022-09-27T08:12:06;28.33;;;19.55;;
74100;SDS011;62462;52.530;21.682;2022-09-27T08:14:32;28.85;;;20.88;;
74100;SDS011;62462;52.530;21.682;2022-09-27T08:16:58;30.25;;;21.58;;
74100;SDS011;62462;52.530;21.682;2022-09-27T08:19:24;30.38;;;21.33;;
74100;SDS011;62462;52.530;21.682;2022-09-27T08:21:50;29.15;;;20.33;;
74100;SDS011;62462;52.530;21.682;2022-09-27T08:24:18;28.10;;;19.60;;
74100;SDS011;62462;52.530;21.682;2022-09-27T08:26:45;25.77;;;18.08;;
74100;SDS011;62462;52.530;21.682;2022-09-27T08:29:10;23.52;;;17.48;;
74100;SDS011;62462;52.530;21.682;2022-09-27T08:31:39;25.65;;;18.45;;
74100;SDS011;62462;52.530;21.682;2022-09-27T08:34:05;27.80;;;17.52;;
74100;SDS011;62462;52.530;21.682;2022-09-27T08:36:30;22.17;;;15.85;;
74100;SDS011;62462;52.530;21.682;2022-09-27T08:39:00;22.02;;;16.45;;
74100;SDS011;62462;52.530;21.682;2022-09-27T08:49:17;22.52;;;16.23;;
74100;SDS011;62462;52.530;21.682;2022-09-27T08:51:43;22.30;;;16.23;;
74100;SDS011;62462;52.530;21.682;2022-09-27T08:54:24;22.33;;;16.98;;
74100;SDS011;62462;52.530;21.682;2022-09-27T08:57:00;20.50;;;15.75;;
74100;SDS011;62462;52.530;21.682;2022-09-27T09:02:05;19.95;;;15.10;;
74100;SDS011;62462;52.530;21.682;2022-09-27T09:04:44;19.90;;;14.88;;
74100;SDS011;62462;52.530;21.682;2022-09-27T09:15:19;18.52;;;14.20;;
74100;SDS011;62462;52.530;21.682;2022-09-27T09:26:48;16.60;;;12.43;;
74100;SDS011;62462;52.530;21.682;2022-09-27T09:32:09;17.35;;;11.75;;
74100;SDS011;62462;52.530;21.682;2022-09-27T09:34:50;17.30;;;12.15;;
74100;SDS011;62462;52.530;21.682;2022-09-27T09:37:34;13.95;;;11.73;;
74100;SDS011;62462;52.530;21.682;2022-09-27T09:43:03;16.65;;;13.00;;
74100;SDS011;62462;52.530;21.682;2022-09-27T09:45:39;14.52;;;11.30;;
74100;SDS011;62462;52.530;21.682;2022-09-27T09:50:54;14.57;;;11.82;;
74100;SDS011;62462;52.530;21.682;2022-09-27T09:53:43;15.10;;;12.13;;
74100;SDS011;62462;52.530;21.682;2022-09-27T09:56:16;14.65;;;10.73;;
74100;SDS011;62462;52.530;21.682;2022-09-27T10:01:22;15.18;;;11.65;;
74100;SDS011;62462;52.530;21.682;2022-09-27T10:03:52;11.95;;;10.30;;
74100;SDS011;62462;52.530;21.682;2022-09-27T10:06:20;12.45;;;10.63;;
74100;SDS011;62462;52.530;21.682;2022-09-27T10:08:46;12.50;;;10.45;;
74100;SDS011;62462;52.530;21.682;2022-09-27T10:11:18;13.82;;;10.32;;
74100;SDS011;62462;52.530;21.682;2022-09-27T10:13:55;12.38;;;9.43;;
74100;SDS011;62462;52.530;21.682;2022-09-27T10:16:21;11.00;;;9.10;;
74100;SDS011;62462;52.530;21.682;2022-09-27T10:18:50;11.65;;;8.85;;
74100;SDS011;62462;52.530;21.682;2022-09-27T10:21:23;9.48;;;8.48;;
74100;SDS011;62462;52.530;21.682;2022-09-27T10:24:08;10.48;;;8.70;;
74100;SDS011;62462;52.530;21.682;2022-09-27T10:26:39;10.60;;;8.45;;
74100;SDS011;62462;52.530;21.682;2022-09-27T10:31:53;12.07;;;10.38;;
74100;SDS011;62462;52.530;21.682;2022-09-27T10:34:32;10.60;;;8.90;;
74100;SDS011;62462;52.530;21.682;2022-09-27T10:39:36;11.05;;;8.88;;
74100;SDS011;62462;52.530;21.682;2022-09-27T10:42:48;9.57;;;8.27;;
74100;SDS011;62462;52.530;21.682;2022-09-27T10:44:51;9.27;;;7.55;;
74100;SDS011;62462;52.530;21.682;2022-09-27T10:47:19;8.93;;;7.53;;
74100;SDS011;62462;52.530;21.682;2022-09-27T10:49:47;9.20;;;7.03;;
74100;SDS011;62462;52.530;21.682;2022-09-27T10:52:20;8.40;;;7.47;;
74100;SDS011;62462;52.530;21.682;2022-09-27T10:54:55;8.88;;;7.93;;
74100;SDS011;62462;52.530;21.682;2022-09-27T10:57:25;7.63;;;6.80;;
74100;SDS011;62462;52.530;21.682;2022-09-27T10:59:58;7.88;;;7.07;;
74100;SDS011;62462;52.530;21.682;2022-09-27T11:02:31;7.40;;;6.53;;
74100;SDS011;62462;52.530;21.682;2022-09-27T11:05:26;8.15;;;7.07;;
74100;SDS011;62462;52.530;21.682;2022-09-27T11:08:22;6.90;;;6.20;;
74100;SDS011;62462;52.530;21.682;2022-09-27T11:13:38;9.93;;;7.00;;
74100;SDS011;62462;52.530;21.682;2022-09-27T11:24:31;8.40;;;7.40;;
74100;SDS011;62462;52.530;21.682;2022-09-27T11:35:37;8.70;;;7.57;;
74100;SDS011;62462;52.530;21.682;2022-09-27T11:44:05;9.07;;;8.13;;
74100;SDS011;62462;52.530;21.682;2022-09-27T11:46:52;10.07;;;8.20;;
74100;SDS011;62462;52.530;21.682;2022-09-27T12:03:58;11.98;;;9.07;;
74100;SDS011;62462;52.530;21.682;2022-09-27T12:06:58;8.77;;;7.47;;
74100;SDS011;62462;52.530;21.682;2022-09-27T12:09:35;11.50;;;8.20;;
74100;SDS011;62462;52.530;21.682;2022-09-27T12:12:17;10.75;;;8.50;;
74100;SDS011;62462;52.530;21.682;2022-09-27T12:14:55;9.00;;;7.35;;
74100;SDS011;62462;52.530;21.682;2022-09-27T12:17:33;12.93;;;8.50;;
74100;SDS011;62462;52.530;21.682;2022-09-27T12:20:05;9.40;;;8.30;;
74100;SDS011;62462;52.530;21.682;2022-09-27T12:25:34;10.60;;;8.35;;
74100;SDS011;62462;52.530;21.682;2022-09-27T12:30:49;9.38;;;7.68;;
74100;SDS011;62462;52.530;21.682;2022-09-27T12:33:27;10.38;;;8.45;;
74100;SDS011;62462;52.530;21.682;2022-09-27T12:35:59;11.90;;;8.65;;
74100;SDS011;62462;52.530;21.682;2022-09-27T12:38:47;8.43;;;7.22;;
74100;SDS011;62462;52.530;21.682;2022-09-27T12:41:43;10.70;;;8.60;;
74100;SDS011;62462;52.530;21.682;2022-09-27T12:44:15;12.00;;;8.15;;
74100;SDS011;62462;52.530;21.682;2022-09-27T12:47:15;10.07;;;7.93;;
74100;SDS011;62462;52.530;21.682;2022-09-27T12:49:55;12.55;;;9.05;;
74100;SDS011;62462;52.530;21.682;2022-09-27T12:52:35;11.93;;;9.57;;
74100;SDS011;62462;52.530;21.682;2022-09-27T13:12:29;12.77;;;10.68;;
74100;SDS011;62462;52.530;21.682;2022-09-27T13:15:00;11.25;;;9.15;;
74100;SDS011;62462;52.530;21.682;2022-09-27T13:17:33;13.90;;;9.18;;
74100;SDS011;62462;52.530;21.682;2022-09-27T13:22:55;14.60;;;9.45;;
74100;SDS011;62462;52.530;21.682;2022-09-27T13:31:05;13.10;;;10.02;;
74100;SDS011;62462;52.530;21.682;2022-09-27T13:41:19;12.05;;;9.18;;
74100;SDS011;62462;52.530;21.682;2022-09-27T13:46:18;13.05;;;9.73;;
74100;SDS011;62462;52.530;21.682;2022-09-27T13:48:49;15.18;;;10.05;;
74100;SDS011;62462;52.530;21.682;2022-09-27T13:51:26;11.90;;;9.40;;
74100;SDS011;62462;52.530;21.682;2022-09-27T13:59:12;13.57;;;11.00;;
74100;SDS011;62462;52.530;21.682;2022-09-27T14:01:50;12.33;;;10.50;;
74100;SDS011;62462;52.530;21.682;2022-09-27T14:07:23;12.23;;;9.38;;
74100;SDS011;62462;52.530;21.682;2022-09-27T14:09:54;10.60;;;8.68;;
74100;SDS011;62462;52.530;21.682;2022-09-27T14:12:26;14.75;;;9.65;;
74100;SDS011;62462;52.530;21.682;2022-09-27T14:14:55;11.48;;;8.95;;
74100;SDS011;62462;52.530;21.682;2022-09-27T14:17:22;14.05;;;9.55;;
74100;SDS011;62462;52.530;21.682;2022-09-27T14:19:50;11.70;;;8.80;;
74100;SDS011;62462;52.530;21.682;2022-09-27T14:22:18;11.65;;;9.48;;
74100;SDS011;62462;52.530;21.682;2022-09-27T14:24:49;11.07;;;8.30;;
74100;SDS011;62462;52.530;21.682;2022-09-27T14:29:57;11.02;;;9.23;;
74100;SDS011;62462;52.530;21.682;2022-09-27T14:32:30;10.27;;;8.43;;
74100;SDS011;62462;52.530;21.682;2022-09-27T14:35:17;10.40;;;7.70;;
74100;SDS011;62462;52.530;21.682;2022-09-27T14:38:04;10.23;;;8.13;;
74100;SDS011;62462;52.530;21.682;2022-09-27T14:40:39;11.32;;;8.10;;
74100;SDS011;62462;52.530;21.682;2022-09-27T14:43:26;13.98;;;9.32;;
74100;SDS011;62462;52.530;21.682;2022-09-27T14:45:57;14.07;;;9.60;;
74100;SDS011;62462;52.530;21.682;2022-09-27T14:48:32;15.23;;;10.55;;
74100;SDS011;62462;52.530;21.682;2022-09-27T14:53:32;16.58;;;12.13;;
74100;SDS011;62462;52.530;21.682;2022-09-27T14:56:00;15.27;;;10.27;;
74100;SDS011;62462;52.530;21.682;2022-09-27T14:58:27;13.18;;;9.55;;
74100;SDS011;62462;52.530;21.682;2022-09-27T15:00:54;10.75;;;8.30;;
74100;SDS011;62462;52.530;21.682;2022-09-27T15:03:31;13.90;;;11.45;;
74100;SDS011;62462;52.530;21.682;2022-09-27T15:06:01;14.43;;;10.68;;
74100;SDS011;62462;52.530;21.682;2022-09-27T15:08:29;13.85;;;11.80;;
74100;SDS011;62462;52.530;21.682;2022-09-27T15:11:00;14.80;;;10.93;;
74100;SDS011;62462;52.530;21.682;2022-09-27T15:13:30;14.90;;;10.50;;
74100;SDS011;62462;52.530;21.682;2022-09-27T15:15:57;12.02;;;9.40;;
74100;SDS011;62462;52.530;21.682;2022-09-27T15:18:33;11.98;;;9.40;;
74100;SDS011;62462;52.530;21.682;2022-09-27T15:21:06;11.10;;;8.95;;
74100;SDS011;62462;52.530;21.682;2022-09-27T15:23:35;12.45;;;9.93;;
74100;SDS011;62462;52.530;21.682;2022-09-27T15:26:12;11.80;;;9.77;;
74100;SDS011;62462;52.530;21.682;2022-09-27T15:28:43;15.02;;;10.43;;
74100;SDS011;62462;52.530;21.682;2022-09-27T15:31:11;12.55;;;9.60;;
74100;SDS011;62462;52.530;21.682;2022-09-27T15:33:38;12.23;;;9.57;;
74100;SDS011;62462;52.530;21.682;2022-09-27T15:36:06;16.92;;;11.13;;
74100;SDS011;62462;52.530;21.682;2022-09-27T15:38:39;16.05;;;11.13;;
74100;SDS011;62462;52.530;21.682;2022-09-27T15:41:18;15.27;;;11.70;;
74100;SDS011;62462;52.530;21.682;2022-09-27T15:43:49;17.58;;;11.80;;
74100;SDS011;62462;52.530;21.682;2022-09-27T15:46:27;19.67;;;12.65;;
74100;SDS011;62462;52.530;21.682;2022-09-27T15:51:49;15.52;;;11.88;;
74100;SDS011;62462;52.530;21.682;2022-09-27T15:54:19;17.02;;;12.90;;
74100;SDS011;62462;52.530;21.682;2022-09-27T15:56:49;17.85;;;11.98;;
74100;SDS011;62462;52.530;21.682;2022-09-27T15:59:22;15.18;;;11.10;;
74100;SDS011;62462;52.530;21.682;2022-09-27T16:01:51;18.33;;;13.27;;
74100;SDS011;62462;52.530;21.682;2022-09-27T16:04:20;17.25;;;12.52;;
74100;SDS011;62462;52.530;21.682;2022-09-27T16:06:47;15.30;;;11.13;;
74100;SDS011;62462;52.530;21.682;2022-09-27T16:09:16;15.93;;;10.85;;
74100;SDS011;62462;52.530;21.682;2022-09-27T16:11:46;15.38;;;11.30;;
74100;SDS011;62462;52.530;21.682;2022-09-27T16:14:14;16.83;;;10.88;;
74100;SDS011;62462;52.530;21.682;2022-09-27T16:16:51;18.02;;;12.27;;
74100;SDS011;62462;52.530;21.682;2022-09-27T16:19:20;19.73;;;12.25;;
74100;SDS011;62462;52.530;21.682;2022-09-27T16:21:46;17.67;;;11.90;;
74100;SDS011;62462;52.530;21.682;2022-09-27T16:24:13;19.00;;;11.98;;
74100;SDS011;62462;52.530;21.682;2022-09-27T16:26:40;20.15;;;14.10;;
74100;SDS011;62462;52.530;21.682;2022-09-27T16:29:09;23.60;;;15.15;;
74100;SDS011;62462;52.530;21.682;2022-09-27T16:31:37;30.30;;;18.30;;
74100;SDS011;62462;52.530;21.682;2022-09-27T16:34:04;29.15;;;17.17;;
74100;SDS011;62462;52.530;21.682;2022-09-27T16:36:30;34.33;;;18.60;;
74100;SDS011;62462;52.530;21.682;2022-09-27T16:38:56;40.17;;;19.63;;
74100;SDS011;62462;52.530;21.682;2022-09-27T16:41:22;31.67;;;19.33;;
74100;SDS011;62462;52.530;21.682;2022-09-27T16:43:47;29.27;;;17.80;;
74100;SDS011;62462;52.530;21.682;2022-09-27T16:46:14;28.80;;;17.08;;
74100;SDS011;62462;52.530;21.682;2022-09-27T16:48:43;21.88;;;14.98;;
74100;SDS011;62462;52.530;21.682;2022-09-27T16:51:16;21.58;;;14.30;;
74100;SDS011;62462;52.530;21.682;2022-09-27T16:54:02;19.05;;;13.52;;
74100;SDS011;62462;52.530;21.682;2022-09-27T16:56:32;26.38;;;16.58;;
74100;SDS011;62462;52.530;21.682;2022-09-27T16:59:00;31.05;;;18.80;;
74100;SDS011;62462;52.530;21.682;2022-09-27T17:01:31;25.02;;;16.17;;
74100;SDS011;62462;52.530;21.682;2022-09-27T17:03:57;22.17;;;14.73;;
74100;SDS011;62462;52.530;21.682;2022-09-27T17:06:23;22.25;;;14.48;;
74100;SDS011;62462;52.530;21.682;2022-09-27T17:08:50;21.17;;;13.88;;
74100;SDS011;62462;52.530;21.682;2022-09-27T17:11:17;20.45;;;13.95;;
74100;SDS011;62462;52.530;21.682;2022-09-27T17:13:44;22.55;;;14.68;;
74100;SDS011;62462;52.530;21.682;2022-09-27T17:16:13;20.60;;;14.50;;
74100;SDS011;62462;52.530;21.682;2022-09-27T17:18:39;20.85;;;14.38;;
74100;SDS011;62462;52.530;21.682;2022-09-27T17:21:06;24.70;;;16.10;;
74100;SDS011;62462;52.530;21.682;2022-09-27T17:23:33;24.88;;;15.07;;
74100;SDS011;62462;52.530;21.682;2022-09-27T17:26:16;24.90;;;15.90;;
74100;SDS011;62462;52.530;21.682;2022-09-27T17:28:44;30.67;;;17.77;;
74100;SDS011;62462;52.530;21.682;2022-09-27T17:31:12;33.28;;;18.10;;
74100;SDS011;62462;52.530;21.682;2022-09-27T17:33:43;30.55;;;17.70;;
74100;SDS011;62462;52.530;21.682;2022-09-27T17:36:12;34.58;;;17.92;;
74100;SDS011;62462;52.530;21.682;2022-09-27T17:38:40;28.88;;;16.63;;
74100;SDS011;62462;52.530;21.682;2022-09-27T17:41:06;27.23;;;16.00;;